METAR Data
IDs: Format: Raw Decoded Include TAF

Data at: 2219 UTC 01 Dec 2021

KRNH 012215Z AUTO 19007KT 10SM CLR 07/03 A2956 RMK AO2 T00710025